createdAt,value
2019-04-26T00:00:47.503Z,78.69
2019-04-26T00:04:01.056Z,78.53
2019-04-26T00:07:15.027Z,78.66
2019-04-26T00:10:44.453Z,78.79
2019-04-26T00:14:19.341Z,79.66
2019-04-26T00:17:39.780Z,79.17
2019-04-26T00:20:53.756Z,79.97
2019-04-26T00:24:07.222Z,80.04
2019-04-26T00:27:21.314Z,80.11
2019-04-26T00:30:35.112Z,80.14
2019-04-26T00:33:48.568Z,79.36
2019-04-26T00:37:02.415Z,78.51
2019-04-26T00:40:16.249Z,77.58
2019-04-26T00:43:30.036Z,77.46
2019-04-26T00:46:46.206Z,77.47
2019-04-26T00:50:00.548Z,77.57
2019-04-26T00:53:15.923Z,78.09
2019-04-26T00:56:30.188Z,77.34
2019-04-26T00:59:43.961Z,77.03
2019-04-26T01:02:58.118Z,77.24
2019-04-26T01:06:14.490Z,76.75
2019-04-26T01:09:28.853Z,76.71
2019-04-26T01:12:42.537Z,76.67
2019-04-26T01:15:55.998Z,76.66
2019-04-26T01:19:11.367Z,75.91
2019-04-26T01:22:28.752Z,76.74
2019-04-26T01:25:56.908Z,77.26
2019-04-26T01:29:12.784Z,76.78
2019-04-26T01:32:28.260Z,77.68
2019-04-26T01:35:42.525Z,77.10
2019-04-26T01:39:00.868Z,76.19
2019-04-26T01:42:33.811Z,76.06
2019-04-26T01:45:55.974Z,76.37
2019-04-26T01:49:10.678Z,76.27
2019-04-26T01:52:25.567Z,76.69
2019-04-26T01:55:39.581Z,76.80
2019-04-26T01:58:53.389Z,77.28
2019-04-26T02:02:29.889Z,76.37
2019-04-26T02:05:43.523Z,76.59
2019-04-26T02:08:57.474Z,76.43
2019-04-26T02:12:11.342Z,75.77
2019-04-26T02:15:29.179Z,75.67
2019-04-26T02:18:43.023Z,75.91
2019-04-26T02:22:22.243Z,76.65
2019-04-26T02:25:35.943Z,77.12
2019-04-26T02:28:49.624Z,77.09
2019-04-26T02:32:03.940Z,76.60
2019-04-26T02:35:17.682Z,76.39
2019-04-26T02:38:32.889Z,76.57
2019-04-26T02:41:53.677Z,76.07
2019-04-26T02:45:50.629Z,75.45
2019-04-26T02:49:28.599Z,75.71
2019-04-26T02:53:11.937Z,76.02
2019-04-26T02:56:53.031Z,76.40
2019-04-26T03:00:10.526Z,75.53
2019-04-26T03:03:24.717Z,75.85
2019-04-26T03:06:42.876Z,76.32
2019-04-26T03:09:57.306Z,76.40
2019-04-26T03:13:25.427Z,76.42
2019-04-26T03:16:53.461Z,76.26
2019-04-26T03:20:11.958Z,75.74
2019-04-26T03:23:53.288Z,75.16
2019-04-26T03:27:23.267Z,75.05
2019-04-26T03:30:52.324Z,75.11
2019-04-26T03:34:22.914Z,75.48
2019-04-26T03:38:06.134Z,76.56
2019-04-26T03:41:39.007Z,76.63
2019-04-26T03:45:25.181Z,76.86
2019-04-26T03:49:05.064Z,76.88
2019-04-26T03:52:56.639Z,77.08
2019-04-26T03:56:27.343Z,76.88
2019-04-26T04:00:38.778Z,77.12
2019-04-26T04:03:57.170Z,77.50
2019-04-26T04:07:13.843Z,77.92
2019-04-26T04:10:33.880Z,78.93
2019-04-26T04:14:04.250Z,79.79
2019-04-26T04:17:49.516Z,79.94
2019-04-26T04:21:34.200Z,79.97
2019-04-26T04:24:52.932Z,81.46
2019-04-26T04:28:34.845Z,81.90
2019-04-26T04:31:53.551Z,82.22
2019-04-26T04:35:10.872Z,82.45
2019-04-26T04:38:49.522Z,82.56
2019-04-26T04:42:56.607Z,81.84
2019-04-26T04:46:30.498Z,81.91
2019-04-26T04:50:20.163Z,82.58
2019-04-26T04:53:49.746Z,82.90
2019-04-26T04:57:20.071Z,82.53
2019-04-26T05:01:24.965Z,82.67
2019-04-26T05:05:08.395Z,82.15
2019-04-26T05:08:40.147Z,83.38
2019-04-26T05:16:55.603Z,84.08
2019-04-26T05:20:22.502Z,84.44
2019-04-26T05:23:57.842Z,84.68
2019-04-26T05:27:40.294Z,83.91
2019-04-26T05:31:24.335Z,85.33
2019-04-26T05:34:50.662Z,85.83
2019-04-26T05:38:18.575Z,85.73
2019-04-26T05:41:55.669Z,85.52
2019-04-26T05:45:37.362Z,85.29
2019-04-26T05:49:59.845Z,85.98
2019-04-26T05:54:09.166Z,85.65
2019-04-26T05:57:51.025Z,85.64
2019-04-26T06:01:56.991Z,85.59
2019-04-26T06:05:23.116Z,85.83
2019-04-26T06:09:52.779Z,85.51
2019-04-26T06:13:36.447Z,84.57
2019-04-26T06:17:33.725Z,85.48
2019-04-26T06:21:10.755Z,84.31
2019-04-26T06:24:33.827Z,84.82
2019-04-26T06:27:58.308Z,84.74
2019-04-26T06:31:27.531Z,83.89
2019-04-26T06:35:20.714Z,83.76
2019-04-26T06:38:54.564Z,83.18
2019-04-26T06:42:30.075Z,83.16
2019-04-26T06:46:06.468Z,83.27
2019-04-26T06:50:05.569Z,81.99
2019-04-26T06:53:39.088Z,83.64
2019-04-26T06:58:05.168Z,83.88
2019-04-26T07:01:59.178Z,83.19
2019-04-26T07:05:19.916Z,83.58
2019-04-26T07:08:57.544Z,84.97
2019-04-26T07:12:45.601Z,84.15
2019-04-26T07:16:22.278Z,84.29
2019-04-26T07:20:42.446Z,84.29
2019-04-26T07:24:52.562Z,85.38
2019-04-26T07:28:26.433Z,85.65
2019-04-26T07:31:54.335Z,85.50
2019-04-26T07:35:16.406Z,85.80
2019-04-26T07:39:20.213Z,85.26
2019-04-26T07:43:27.906Z,83.82
2019-04-26T07:47:06.003Z,83.83
2019-04-26T07:51:04.402Z,84.73
2019-04-26T07:55:03.190Z,83.59
2019-04-26T07:59:11.226Z,83.10
2019-04-26T08:02:58.736Z,83.18
2019-04-26T08:06:35.978Z,82.59
2019-04-26T08:10:00.180Z,83.23
2019-04-26T08:13:17.759Z,82.00
2019-04-26T08:17:02.450Z,83.13
2019-04-26T08:20:33.145Z,82.14
2019-04-26T08:24:09.962Z,82.44
2019-04-26T08:27:27.155Z,81.52
2019-04-26T08:30:46.244Z,82.50
2019-04-26T08:34:07.514Z,81.04
2019-04-26T08:37:36.542Z,82.17
2019-04-26T08:40:51.465Z,80.45
2019-04-26T08:44:14.699Z,81.32
2019-04-26T08:47:55.394Z,80.21
2019-04-26T08:51:15.367Z,80.41
2019-04-26T08:54:35.375Z,81.11
2019-04-26T08:57:52.624Z,81.80
2019-04-26T09:01:28.313Z,81.75
2019-04-26T09:04:59.167Z,79.88
2019-04-26T09:08:16.621Z,79.39
2019-04-26T09:11:33.977Z,79.62
2019-04-26T09:14:53.719Z,78.08
2019-04-26T09:18:07.816Z,78.13
2019-04-26T09:21:37.186Z,77.61
2019-04-26T09:24:59.408Z,76.52
2019-04-26T09:28:17.078Z,78.19
2019-04-26T09:31:39.463Z,77.90
2019-04-26T09:34:53.037Z,77.67
2019-04-26T09:38:06.800Z,78.31
2019-04-26T09:41:20.827Z,79.36
2019-04-26T09:44:41.382Z,79.24
2019-04-26T09:48:00.683Z,78.33
2019-04-26T09:51:14.654Z,76.46
2019-04-26T09:54:28.135Z,77.33
2019-04-26T09:57:41.712Z,77.06
2019-04-26T10:00:55.309Z,76.83
2019-04-26T10:04:08.764Z,78.62
2019-04-26T10:07:22.248Z,78.01
2019-04-26T10:10:36.456Z,78.28
2019-04-26T10:14:18.727Z,78.95
2019-04-26T10:17:32.709Z,75.79
2019-04-26T10:20:46.491Z,76.48
2019-04-26T10:24:00.372Z,77.49
2019-04-26T10:27:14.604Z,77.97
2019-04-26T10:30:28.367Z,77.63
2019-04-26T10:33:47.097Z,76.48
2019-04-26T10:37:01.535Z,74.89
2019-04-26T10:40:16.839Z,75.76
2019-04-26T10:43:30.769Z,73.79
2019-04-26T10:46:55.007Z,72.80
2019-04-26T10:50:00.611Z,72.81
2019-04-26T10:53:32.007Z,73.31
2019-04-26T10:57:11.284Z,73.86
2019-04-26T11:00:38.228Z,73.25
2019-04-26T11:03:52.670Z,71.94
2019-04-26T11:07:06.624Z,72.42
2019-04-26T11:10:20.715Z,72.95
2019-04-26T11:13:34.673Z,70.41
2019-04-26T11:16:48.354Z,70.34
2019-04-26T11:20:02.305Z,69.96
2019-04-26T11:23:16.475Z,70.16
2019-04-26T11:26:31.108Z,70.57
2019-04-26T11:29:53.597Z,71.79
2019-04-26T11:33:02.073Z,73.06
2019-04-26T11:36:15.751Z,73.22
2019-04-26T11:39:29.629Z,69.85
2019-04-26T11:42:45.686Z,73.09
2019-04-26T11:46:04.406Z,73.97
2019-04-26T11:49:15.101Z,73.52
2019-04-26T11:52:32.167Z,74.29
2019-04-26T11:55:45.735Z,75.16
2019-04-26T11:58:59.306Z,74.23
2019-04-26T12:02:16.199Z,75.84
2019-04-26T12:05:46.971Z,75.39
2019-04-26T12:09:12.112Z,73.55
2019-04-26T12:16:32.868Z,68.12
2019-04-26T12:19:48.290Z,67.69
2019-04-26T12:23:02.179Z,67.57
2019-04-26T12:26:17.356Z,66.90
2019-04-26T12:29:31.490Z,67.36
2019-04-26T12:32:45.278Z,65.90
2019-04-26T12:35:59.283Z,66.54
2019-04-26T12:39:14.730Z,66.62
2019-04-26T12:42:28.584Z,65.02
2019-04-26T12:46:10.962Z,64.97
2019-04-26T12:49:25.413Z,65.68
2019-04-26T12:52:39.414Z,67.77
2019-04-26T12:55:56.197Z,68.48
2019-04-26T12:59:08.543Z,68.69
2019-04-26T13:02:22.148Z,67.01
2019-04-26T13:05:35.905Z,66.26
2019-04-26T13:08:51.389Z,66.55
2019-04-26T13:12:19.867Z,66.72
2019-04-26T13:16:16.835Z,66.92
2019-04-26T13:19:30.742Z,65.00
2019-04-26T13:22:46.218Z,64.94
2019-04-26T13:26:01.610Z,63.32
2019-04-26T13:29:15.279Z,62.36
2019-04-26T13:32:28.748Z,60.95
2019-04-26T13:35:45.440Z,59.84
2019-04-26T13:38:57.963Z,61.84
2019-04-26T13:42:13.608Z,62.64
2019-04-26T13:45:50.249Z,64.92
2019-04-26T13:49:18.138Z,63.74
2019-04-26T13:52:31.402Z,63.00
2019-04-26T13:55:45.126Z,62.19
2019-04-26T13:58:59.908Z,60.43
2019-04-26T14:02:14.059Z,59.98
2019-04-26T14:05:27.812Z,60.02
2019-04-26T14:08:41.885Z,57.53
2019-04-26T14:11:58.062Z,57.99
2019-04-26T14:15:11.489Z,59.16
2019-04-26T14:18:25.539Z,57.96
2019-04-26T14:21:39.268Z,59.00
2019-04-26T14:24:59.576Z,59.07
2019-04-26T14:28:13.300Z,59.30
2019-04-26T14:31:27.331Z,57.64
2019-04-26T14:34:42.015Z,56.25
2019-04-26T14:37:56.233Z,56.86
2019-04-26T14:41:13.320Z,56.13
2019-04-26T14:44:27.125Z,55.02
2019-04-26T14:47:47.542Z,55.11
2019-04-26T14:51:07.426Z,54.86
2019-04-26T14:54:12.946Z,56.90
2019-04-26T14:57:31.434Z,55.06
2019-04-26T15:00:44.561Z,55.63
2019-04-26T15:04:20.844Z,53.47
2019-04-26T15:07:35.079Z,54.80
2019-04-26T15:10:57.739Z,58.08
2019-04-26T15:14:05.711Z,55.91
2019-04-26T15:17:20.153Z,54.16
2019-04-26T15:20:34.782Z,54.96
2019-04-26T15:23:48.527Z,53.50
2019-04-26T15:27:03.346Z,52.44
2019-04-26T15:30:17.092Z,52.61
2019-04-26T15:33:32.372Z,51.59
2019-04-26T15:36:47.974Z,51.57
2019-04-26T15:40:16.711Z,51.38
2019-04-26T15:43:50.217Z,51.90
2019-04-26T15:47:13.091Z,52.14
2019-04-26T15:50:47.796Z,50.99
2019-04-26T15:53:56.825Z,51.36
2019-04-26T15:57:12.297Z,50.98
2019-04-26T16:00:28.370Z,53.18
2019-04-26T16:03:44.578Z,53.02
2019-04-26T16:06:58.264Z,51.48
2019-04-26T16:10:12.212Z,51.17
2019-04-26T16:13:26.486Z,51.10
2019-04-26T16:16:40.224Z,50.57
2019-04-26T16:19:56.056Z,50.88
2019-04-26T16:23:09.551Z,49.99
2019-04-26T16:26:23.143Z,48.01
2019-04-26T16:29:50.878Z,48.52
2019-04-26T16:33:28.414Z,49.72
2019-04-26T16:39:57.941Z,50.07
2019-04-26T16:43:12.551Z,51.62
2019-04-26T16:46:26.912Z,52.53
2019-04-26T16:49:41.946Z,51.80
2019-04-26T16:52:56.291Z,52.55
2019-04-26T16:56:09.820Z,53.87
2019-04-26T16:59:26.596Z,53.36
2019-04-26T17:02:39.411Z,54.02
2019-04-26T17:06:04.753Z,55.18
2019-04-26T17:09:08.771Z,55.93
2019-04-26T17:09:51.459Z,48.92
2019-04-26T17:12:24.634Z,55.96
2019-04-26T17:15:38.149Z,56.47
2019-04-26T17:18:55.616Z,56.37
2019-04-26T17:22:16.077Z,57.12
2019-04-26T17:25:55.221Z,57.78
2019-04-26T17:29:08.120Z,57.73
2019-04-26T17:32:23.267Z,57.97
2019-04-26T17:35:41.038Z,58.82
2019-04-26T17:38:52.995Z,58.65
2019-04-26T17:42:06.753Z,59.47
2019-04-26T17:45:21.238Z,60.14
2019-04-26T17:48:34.979Z,60.72
2019-04-26T17:51:51.696Z,60.16
2019-04-26T17:55:07.847Z,61.23
2019-04-26T17:58:27.752Z,61.58
2019-04-26T18:01:45.574Z,62.06
2019-04-26T18:05:00.255Z,62.21
2019-04-26T18:08:31.596Z,62.54
2019-04-26T18:11:24.915Z,63.16
2019-04-26T18:14:38.631Z,62.97
2019-04-26T18:18:30.333Z,63.42
2019-04-26T18:22:00.158Z,64.75
2019-04-26T18:25:14.678Z,65.77
2019-04-26T18:28:28.403Z,68.80
2019-04-26T18:31:43.846Z,70.99
2019-04-26T18:34:57.393Z,72.34
2019-04-26T18:38:12.609Z,73.25
2019-04-26T18:41:28.667Z,73.69
2019-04-26T18:44:47.373Z,74.47
2019-04-26T18:48:01.401Z,75.49
2019-04-26T18:51:13.834Z,76.35
2019-04-26T18:54:36.152Z,76.09
2019-04-26T18:57:55.227Z,76.25
2019-04-26T19:01:06.419Z,76.10
2019-04-26T19:04:19.890Z,76.70
2019-04-26T19:07:33.469Z,76.87
2019-04-26T19:10:58.478Z,77.86
2019-04-26T19:14:21.920Z,78.60
2019-04-26T19:18:04.278Z,79.10
2019-04-26T19:21:32.375Z,79.49
2019-04-26T19:24:49.424Z,79.54
2019-04-26T19:28:04.426Z,79.89
2019-04-26T19:31:19.232Z,79.70
2019-04-26T19:34:32.899Z,80.09
2019-04-26T19:37:46.376Z,79.98
2019-04-26T19:40:59.845Z,80.27
2019-04-26T19:44:14.689Z,80.24
2019-04-26T19:47:39.474Z,80.25
2019-04-26T19:51:15.142Z,80.24
2019-04-26T19:54:41.878Z,80.67
2019-04-26T19:58:01.829Z,80.46
2019-04-26T20:01:16.625Z,80.46
2019-04-26T20:04:34.008Z,80.27
2019-04-26T20:07:46.496Z,80.49
2019-04-26T20:11:01.355Z,80.59
2019-04-26T20:14:15.624Z,80.46
2019-04-26T20:17:29.482Z,81.24
2019-04-26T20:20:43.046Z,80.68
2019-04-26T20:23:56.509Z,80.40
2019-04-26T20:27:15.656Z,80.23
2019-04-26T20:30:44.091Z,80.31
2019-04-26T20:33:57.620Z,79.50
2019-04-26T20:37:11.425Z,79.05
2019-04-26T20:40:25.754Z,78.95
2019-04-26T20:43:44.354Z,78.82
2019-04-26T20:46:54.770Z,78.69
2019-04-26T20:50:08.424Z,78.40
2019-04-26T20:53:21.910Z,78.20
2019-04-26T20:56:35.495Z,78.56
2019-04-26T20:59:52.080Z,78.12
2019-04-26T21:03:06.205Z,78.60
2019-04-26T21:06:19.851Z,78.12
2019-04-26T21:09:36.443Z,77.82
2019-04-26T21:16:38.828Z,78.10
2019-04-26T21:19:54.882Z,79.21
2019-04-26T21:23:08.333Z,79.75
2019-04-26T21:26:46.558Z,80.29
2019-04-26T21:30:18.505Z,79.69
2019-04-26T21:33:39.256Z,78.85
2019-04-26T21:37:11.325Z,78.00
2019-04-26T21:40:34.331Z,77.10
2019-04-26T21:43:47.808Z,77.26
2019-04-26T21:47:03.255Z,77.61
2019-04-26T21:50:16.887Z,77.50
2019-04-26T21:53:30.475Z,78.03
2019-04-26T21:56:48.755Z,77.91
2019-04-26T21:59:59.557Z,78.09
2019-04-26T22:03:16.014Z,78.05
2019-04-26T22:06:28.935Z,77.79
2019-04-26T22:10:01.163Z,77.37
2019-04-26T22:13:30.269Z,77.29
2019-04-26T22:16:49.777Z,77.32
2019-04-26T22:20:26.106Z,77.91
2019-04-26T22:23:47.605Z,76.99
2019-04-26T22:27:03.849Z,76.68
2019-04-26T22:30:28.278Z,76.71
2019-04-26T22:33:39.179Z,76.50
2019-04-26T22:36:53.688Z,76.75
2019-04-26T22:40:10.540Z,77.06
2019-04-26T22:43:31.868Z,76.91
2019-04-26T22:47:14.110Z,77.02
2019-04-26T22:50:27.829Z,77.34
2019-04-26T22:53:42.980Z,77.42
2019-04-26T22:56:57.083Z,77.55
2019-04-26T23:00:10.871Z,77.27
2019-04-26T23:03:24.672Z,77.34
2019-04-26T23:06:38.143Z,77.31
2019-04-26T23:09:55.131Z,77.36
2019-04-26T23:13:13.888Z,77.47
2019-04-26T23:16:40.486Z,77.19
2019-04-26T23:19:57.536Z,77.33
2019-04-26T23:23:11.275Z,77.19
2019-04-26T23:26:24.832Z,77.27
2019-04-26T23:29:38.347Z,77.84
2019-04-26T23:32:52.201Z,77.95
2019-04-26T23:36:06.695Z,77.81
2019-04-26T23:39:20.422Z,77.58
2019-04-26T23:42:33.987Z,77.36
2019-04-26T23:45:48.444Z,77.67
2019-04-26T23:49:03.091Z,77.80
2019-04-26T23:52:18.599Z,77.64
2019-04-26T23:55:33.707Z,77.34
2019-04-26T23:58:47.723Z,77.54
